createdAt,value
2019-01-24T00:02:01.093Z,50.83
2019-01-24T00:04:27.104Z,52.77
2019-01-24T00:06:52.970Z,51.07
2019-01-24T00:09:18.875Z,52.87
2019-01-24T00:11:44.786Z,54.77
2019-01-24T00:14:10.735Z,52.13
2019-01-24T00:16:36.666Z,54.43
2019-01-24T00:19:02.580Z,58.93
2019-01-24T00:21:28.498Z,48.27
2019-01-24T00:23:54.419Z,50.77
2019-01-24T00:26:20.312Z,48.03
2019-01-24T00:28:46.172Z,50.30
2019-01-24T00:31:12.106Z,50.00
2019-01-24T00:33:37.971Z,51.67
2019-01-24T00:36:03.881Z,45.97
2019-01-24T00:38:29.774Z,52.40
2019-01-24T00:40:55.728Z,50.93
2019-01-24T00:43:21.588Z,44.30
2019-01-24T00:45:47.490Z,45.80
2019-01-24T00:48:13.371Z,42.70
2019-01-24T00:50:39.281Z,44.10
2019-01-24T00:53:05.176Z,42.07
2019-01-24T00:55:31.046Z,44.90
2019-01-24T00:57:56.950Z,37.97
2019-01-24T01:00:24.128Z,42.03
2019-01-24T01:02:50.026Z,44.77
2019-01-24T01:05:15.896Z,38.73
2019-01-24T01:07:41.834Z,39.03
2019-01-24T01:10:08.783Z,39.13
2019-01-24T01:12:34.756Z,37.60
2019-01-24T01:15:00.631Z,43.53
2019-01-24T01:17:26.507Z,37.23
2019-01-24T01:19:52.417Z,41.03
2019-01-24T01:22:18.292Z,37.63
2019-01-24T01:24:44.200Z,38.63
2019-01-24T01:27:10.059Z,40.93
2019-01-24T01:29:35.970Z,40.97
2019-01-24T01:32:01.873Z,37.53
2019-01-24T01:34:27.891Z,38.77
2019-01-24T01:36:53.761Z,39.30
2019-01-24T01:39:19.683Z,39.07
2019-01-24T01:41:45.607Z,39.07
2019-01-24T01:44:11.484Z,38.80
2019-01-24T01:46:37.396Z,38.00
2019-01-24T01:49:03.273Z,38.63
2019-01-24T01:51:29.173Z,40.37
2019-01-24T01:53:55.031Z,40.30
2019-01-24T01:56:20.941Z,37.80
2019-01-24T01:58:46.802Z,38.43
2019-01-24T02:01:12.715Z,33.37
2019-01-24T02:03:38.588Z,33.40
2019-01-24T02:06:04.470Z,37.30
2019-01-24T02:08:30.377Z,38.90
2019-01-24T02:10:56.258Z,35.80
2019-01-24T02:13:22.209Z,37.90
2019-01-24T02:15:48.070Z,32.93
2019-01-24T02:18:14.040Z,33.13
2019-01-24T02:20:39.924Z,36.83
2019-01-24T02:23:05.804Z,33.70
2019-01-24T02:25:31.720Z,35.93
2019-01-24T02:27:57.596Z,33.63
2019-01-24T02:30:25.921Z,33.97
2019-01-24T02:32:51.836Z,33.90
2019-01-24T02:35:17.730Z,37.10
2019-01-24T02:37:43.608Z,38.27
2019-01-24T02:40:09.504Z,33.23
2019-01-24T02:42:35.391Z,36.37
2019-01-24T02:45:01.312Z,37.57
2019-01-24T02:47:27.170Z,34.57
2019-01-24T02:49:53.073Z,35.93
2019-01-24T02:52:18.947Z,37.83
2019-01-24T02:54:44.858Z,33.40
2019-01-24T02:57:10.718Z,36.13
2019-01-24T02:59:36.598Z,38.13
2019-01-24T03:02:02.809Z,39.43
2019-01-24T03:04:28.676Z,36.17
2019-01-24T03:06:54.575Z,35.17
2019-01-24T03:09:20.452Z,34.60
2019-01-24T03:11:46.393Z,38.03
2019-01-24T03:14:12.268Z,36.53
2019-01-24T03:16:38.188Z,40.70
2019-01-24T03:19:04.076Z,35.97
2019-01-24T03:21:29.958Z,38.83
2019-01-24T03:23:55.872Z,36.47
2019-01-24T03:26:21.753Z,37.43
2019-01-24T03:28:48.163Z,35.87
2019-01-24T03:31:14.084Z,35.80
2019-01-24T03:33:40.003Z,38.43
2019-01-24T03:36:05.875Z,41.13
2019-01-24T03:38:31.779Z,39.13
2019-01-24T03:40:57.654Z,38.50
2019-01-24T03:43:23.555Z,37.53
2019-01-24T03:45:49.472Z,35.40
2019-01-24T03:48:15.382Z,36.73
2019-01-24T03:50:41.248Z,37.40
2019-01-24T03:53:07.151Z,38.10
2019-01-24T03:55:33.085Z,41.97
2019-01-24T03:57:59.008Z,34.03
2019-01-24T04:00:24.932Z,41.87
2019-01-24T04:02:50.811Z,37.50
2019-01-24T04:05:16.827Z,36.53
2019-01-24T04:07:42.692Z,39.57
2019-01-24T04:10:19.384Z,36.57
2019-01-24T04:12:45.256Z,38.90
2019-01-24T04:15:17.229Z,35.37
2019-01-24T04:17:43.131Z,39.03
2019-01-24T04:20:09.750Z,36.83
2019-01-24T04:22:35.633Z,42.37
2019-01-24T04:25:01.540Z,37.47
2019-01-24T04:27:27.458Z,37.40
2019-01-24T04:29:53.355Z,41.57
2019-01-24T04:32:19.255Z,39.03
2019-01-24T04:34:45.212Z,42.10
2019-01-24T04:37:11.113Z,42.97
2019-01-24T04:39:36.988Z,43.10
2019-01-24T04:42:02.923Z,44.40
2019-01-24T04:44:28.792Z,43.53
2019-01-24T04:46:54.821Z,37.60
2019-01-24T04:49:20.720Z,40.43
2019-01-24T04:51:46.594Z,39.93
2019-01-24T04:54:12.504Z,39.10
2019-01-24T04:56:38.403Z,42.37
2019-01-24T04:59:04.311Z,43.73
2019-01-24T05:01:30.179Z,43.23
2019-01-24T05:03:56.111Z,41.77
2019-01-24T05:06:21.978Z,47.30
2019-01-24T05:08:47.894Z,42.20
2019-01-24T05:11:13.801Z,43.57
2019-01-24T05:13:39.852Z,39.97
2019-01-24T05:16:05.728Z,37.20
2019-01-24T05:18:31.645Z,45.77
2019-01-24T05:20:57.531Z,40.70
2019-01-24T05:23:23.394Z,43.70
2019-01-24T05:25:49.316Z,42.53
2019-01-24T05:28:15.186Z,42.30
2019-01-24T05:30:41.132Z,42.13
2019-01-24T05:33:07.002Z,44.47
2019-01-24T05:35:34.844Z,42.23
2019-01-24T05:38:00.734Z,44.03
2019-01-24T05:40:26.607Z,39.30
2019-01-24T05:42:52.500Z,45.00
2019-01-24T05:45:18.386Z,41.47
2019-01-24T05:47:44.303Z,41.80
2019-01-24T05:50:11.390Z,40.63
2019-01-24T05:52:37.297Z,41.13
2019-01-24T05:55:05.161Z,43.83
2019-01-24T05:57:31.064Z,44.00
2019-01-24T05:59:56.982Z,43.13
2019-01-24T06:02:22.961Z,40.53
2019-01-24T06:04:48.877Z,39.40
2019-01-24T06:07:14.750Z,47.27
2019-01-24T06:09:40.657Z,45.03
2019-01-24T06:12:06.546Z,38.07
2019-01-24T06:14:32.421Z,43.17
2019-01-24T06:16:58.316Z,40.63
2019-01-24T06:19:24.199Z,45.07
2019-01-24T06:21:50.117Z,41.23
2019-01-24T06:24:16.003Z,46.93
2019-01-24T06:26:41.909Z,38.57
2019-01-24T06:29:07.877Z,41.10
2019-01-24T06:31:33.817Z,45.07
2019-01-24T06:33:59.737Z,43.43
2019-01-24T06:36:25.638Z,46.33
2019-01-24T06:38:51.555Z,41.30
2019-01-24T06:41:17.437Z,44.70
2019-01-24T06:43:43.359Z,43.47
2019-01-24T06:46:09.230Z,47.93
2019-01-24T06:48:35.093Z,45.37
2019-01-24T06:51:01.002Z,44.63
2019-01-24T06:53:26.869Z,47.13
2019-01-24T06:55:52.786Z,42.57
2019-01-24T06:58:18.663Z,46.33
2019-01-24T07:00:44.739Z,43.37
2019-01-24T07:03:10.656Z,49.40
2019-01-24T07:05:36.634Z,45.93
2019-01-24T07:08:02.537Z,43.97
2019-01-24T07:10:28.414Z,51.23
2019-01-24T07:12:54.338Z,48.13
2019-01-24T07:15:21.219Z,47.23
2019-01-24T07:17:47.143Z,44.50
2019-01-24T07:20:15.028Z,43.10
2019-01-24T07:22:41.048Z,43.03
2019-01-24T07:25:10.539Z,43.47
2019-01-24T07:27:36.436Z,47.87
2019-01-24T07:30:09.078Z,48.83
2019-01-24T07:32:35.041Z,44.33
2019-01-24T07:35:00.947Z,46.13
2019-01-24T07:37:26.833Z,42.10
2019-01-24T07:39:52.734Z,49.63
2019-01-24T07:42:18.613Z,46.10
2019-01-24T07:44:44.522Z,47.03
2019-01-24T07:47:10.393Z,45.50
2019-01-24T07:49:36.297Z,47.77
2019-01-24T07:52:02.178Z,48.87
2019-01-24T07:54:28.099Z,40.73
2019-01-24T07:56:53.965Z,45.53
2019-01-24T07:59:19.883Z,45.13
2019-01-24T08:01:45.812Z,45.57
2019-01-24T08:04:11.719Z,44.07
2019-01-24T08:06:41.741Z,51.73
2019-01-24T08:09:07.858Z,50.03
2019-01-24T08:11:33.787Z,44.53
2019-01-24T08:13:59.690Z,45.47
2019-01-24T08:16:25.572Z,44.80
2019-01-24T08:18:51.470Z,41.70
2019-01-24T08:21:17.386Z,43.43
2019-01-24T08:23:43.330Z,45.17
2019-01-24T08:26:09.264Z,42.00
2019-01-24T08:28:35.138Z,42.57
2019-01-24T08:31:01.276Z,41.13
2019-01-24T08:33:27.226Z,39.70
2019-01-24T08:35:53.130Z,40.53
2019-01-24T08:38:19.002Z,45.13
2019-01-24T08:40:44.920Z,42.40
2019-01-24T08:43:10.781Z,46.67
2019-01-24T08:45:36.711Z,39.60
2019-01-24T08:48:02.682Z,42.43
2019-01-24T08:50:28.607Z,37.27
2019-01-24T08:52:54.484Z,40.70
2019-01-24T08:55:29.474Z,42.13
2019-01-24T08:57:55.332Z,42.30
2019-01-24T09:00:21.230Z,42.77
2019-01-24T09:02:47.621Z,43.47
2019-01-24T09:05:13.535Z,44.73
2019-01-24T09:07:39.410Z,37.87
2019-01-24T09:10:08.987Z,42.83
2019-01-24T09:12:34.945Z,39.77
2019-01-24T09:15:01.208Z,40.43
2019-01-24T09:17:27.093Z,41.00
2019-01-24T09:19:52.975Z,38.83
2019-01-24T09:22:18.873Z,42.47
2019-01-24T09:24:44.733Z,37.77
2019-01-24T09:27:10.691Z,37.73
2019-01-24T09:29:36.552Z,46.13
2019-01-24T09:32:02.563Z,37.27
2019-01-24T09:34:28.471Z,40.60
2019-01-24T09:36:54.396Z,37.60
2019-01-24T09:39:20.273Z,37.37
2019-01-24T09:41:46.151Z,38.77
2019-01-24T09:44:12.045Z,38.57
2019-01-24T09:46:37.922Z,36.40
2019-01-24T09:49:03.831Z,36.33
2019-01-24T09:51:29.684Z,40.03
2019-01-24T09:53:55.598Z,36.80
2019-01-24T09:56:21.466Z,34.73
2019-01-24T09:58:47.392Z,36.70
2019-01-24T10:01:13.280Z,38.83
2019-01-24T10:03:39.220Z,37.53
2019-01-24T10:06:05.243Z,38.00
2019-01-24T10:08:31.104Z,34.13
2019-01-24T10:10:57.039Z,38.93
2019-01-24T10:13:23.054Z,33.00
2019-01-24T10:15:48.930Z,35.87
2019-01-24T10:18:21.453Z,32.60
2019-01-24T10:20:42.613Z,35.17
2019-01-24T10:23:08.496Z,32.40
2019-01-24T10:25:35.200Z,32.77
2019-01-24T10:28:01.111Z,32.23
2019-01-24T10:30:27.150Z,33.43
2019-01-24T10:32:53.266Z,31.80
2019-01-24T10:35:19.201Z,32.37
2019-01-24T10:37:45.078Z,35.27
2019-01-24T10:40:19.638Z,34.67
2019-01-24T10:42:45.521Z,31.80
2019-01-24T10:45:14.041Z,30.30
2019-01-24T10:47:39.935Z,28.47
2019-01-24T10:50:09.371Z,31.80
2019-01-24T10:52:35.251Z,27.37
2019-01-24T10:55:01.457Z,23.63
2019-01-24T10:57:27.368Z,26.00
2019-01-24T10:59:53.267Z,25.10
2019-01-24T11:02:19.142Z,24.00
2019-01-24T11:04:45.060Z,24.67
2019-01-24T11:07:10.995Z,26.77
2019-01-24T11:09:36.876Z,26.20
2019-01-24T11:12:02.800Z,25.20
2019-01-24T11:14:28.725Z,25.00
2019-01-24T11:16:54.618Z,27.50
2019-01-24T11:19:20.491Z,28.97
2019-01-24T11:21:46.410Z,28.80
2019-01-24T11:24:12.338Z,28.23
2019-01-24T11:26:38.257Z,27.30
2019-01-24T11:29:04.166Z,27.63
2019-01-24T11:31:30.074Z,26.70
2019-01-24T11:33:55.994Z,28.47
2019-01-24T11:36:21.911Z,30.73
2019-01-24T11:38:47.923Z,28.80
2019-01-24T11:41:13.790Z,28.63
2019-01-24T11:43:39.728Z,30.63
2019-01-24T11:46:05.593Z,27.03
2019-01-24T11:48:31.455Z,26.13
2019-01-24T11:50:57.381Z,28.43
2019-01-24T11:53:23.261Z,30.17
2019-01-24T11:55:49.178Z,27.57
2019-01-24T11:58:15.059Z,28.13
2019-01-24T12:00:42.860Z,30.97
2019-01-24T12:03:08.732Z,30.60
2019-01-24T12:05:34.614Z,27.37
2019-01-24T12:08:00.538Z,27.10
2019-01-24T12:10:28.071Z,28.40
2019-01-24T12:12:53.952Z,29.07
2019-01-24T12:15:21.893Z,30.30
2019-01-24T12:17:47.797Z,27.00
2019-01-24T12:20:16.071Z,28.60
2019-01-24T12:22:41.985Z,30.67
2019-01-24T12:25:08.957Z,32.73
2019-01-24T12:27:34.867Z,27.87
2019-01-24T12:30:00.741Z,26.83
2019-01-24T12:32:26.663Z,24.27
2019-01-24T12:34:52.728Z,28.90
2019-01-24T12:37:18.675Z,29.90
2019-01-24T12:39:44.550Z,28.43
2019-01-24T12:42:10.429Z,26.73
2019-01-24T12:44:36.350Z,26.77
2019-01-24T12:47:02.225Z,26.63
2019-01-24T12:49:28.145Z,25.00
2019-01-24T12:51:54.016Z,28.37
2019-01-24T12:54:19.925Z,28.77
2019-01-24T12:56:45.796Z,28.87
2019-01-24T12:59:11.732Z,27.03
2019-01-24T13:01:37.616Z,30.03
2019-01-24T13:04:03.536Z,27.07
2019-01-24T13:06:29.418Z,29.90
2019-01-24T13:08:55.356Z,29.50
2019-01-24T13:11:21.271Z,26.93
2019-01-24T13:13:47.179Z,30.53
2019-01-24T13:16:13.081Z,28.87
2019-01-24T13:18:38.957Z,31.70
2019-01-24T13:21:04.868Z,33.03
2019-01-24T13:23:30.740Z,26.87
2019-01-24T13:25:58.720Z,30.27
2019-01-24T13:28:24.692Z,32.47
2019-01-24T13:30:50.650Z,30.47
2019-01-24T13:33:16.515Z,30.53
2019-01-24T13:35:42.433Z,29.80
2019-01-24T13:38:08.299Z,30.37
2019-01-24T13:40:34.223Z,31.50
2019-01-24T13:43:00.103Z,28.87
2019-01-24T13:45:29.022Z,32.07
2019-01-24T13:47:54.893Z,36.50
2019-01-24T13:50:20.906Z,32.90
2019-01-24T13:52:46.774Z,33.13
2019-01-24T13:55:12.706Z,35.37
2019-01-24T13:57:38.637Z,34.43
2019-01-24T14:00:08.324Z,34.73
2019-01-24T14:02:34.548Z,31.30
2019-01-24T14:05:00.453Z,38.93
2019-01-24T14:07:32.827Z,34.60
2019-01-24T14:09:54.106Z,33.17
2019-01-24T14:12:20.038Z,35.47
2019-01-24T14:14:46.448Z,33.70
2019-01-24T14:17:12.324Z,33.33
2019-01-24T14:19:39.176Z,31.60
2019-01-24T14:22:05.200Z,34.13
2019-01-24T14:24:31.069Z,32.50
2019-01-24T14:26:56.966Z,38.97
2019-01-24T14:29:22.886Z,29.60
2019-01-24T14:31:48.788Z,32.97
2019-01-24T14:34:14.830Z,30.57
2019-01-24T14:36:41.064Z,33.17
2019-01-24T14:39:07.274Z,33.13
2019-01-24T14:41:33.174Z,34.83
2019-01-24T14:43:59.045Z,33.83
2019-01-24T14:46:24.978Z,32.27
2019-01-24T14:48:50.857Z,33.70
2019-01-24T14:51:16.734Z,32.97
2019-01-24T14:53:42.644Z,33.80
2019-01-24T14:56:08.578Z,36.83
2019-01-24T14:58:34.495Z,35.80
2019-01-24T15:01:02.120Z,38.63
2019-01-24T15:03:28.126Z,36.70
2019-01-24T15:05:54.052Z,35.40
2019-01-24T15:08:19.944Z,36.03
2019-01-24T15:10:45.868Z,32.40
2019-01-24T15:13:11.738Z,37.40
2019-01-24T15:15:38.239Z,36.80
2019-01-24T15:18:05.130Z,40.67
2019-01-24T15:20:31.003Z,41.50
2019-01-24T15:22:56.915Z,36.93
2019-01-24T15:25:22.793Z,35.73
2019-01-24T15:27:48.709Z,38.53
2019-01-24T15:30:21.383Z,44.57
2019-01-24T15:32:47.250Z,46.60
2019-01-24T15:35:13.157Z,39.03
2019-01-24T15:37:39.072Z,39.93
2019-01-24T15:40:14.632Z,43.23
2019-01-24T15:42:40.569Z,46.67
2019-01-24T15:45:09.878Z,42.07
2019-01-24T15:47:35.762Z,41.67
2019-01-24T15:50:03.593Z,43.13
2019-01-24T15:52:34.010Z,42.77
2019-01-24T15:54:57.285Z,39.73
2019-01-24T15:57:23.166Z,40.73
2019-01-24T15:59:49.068Z,42.87
2019-01-24T16:02:14.954Z,42.00
2019-01-24T16:04:40.858Z,37.53
2019-01-24T16:07:06.744Z,36.73
2019-01-24T16:09:32.672Z,38.97
2019-01-24T16:11:58.551Z,40.60
2019-01-24T16:14:24.518Z,39.57
2019-01-24T16:16:50.418Z,41.10
2019-01-24T16:19:16.309Z,39.03
2019-01-24T16:21:42.263Z,39.57
2019-01-24T16:24:08.089Z,38.90
2019-01-24T16:26:34.003Z,38.00
2019-01-24T16:28:59.887Z,40.77
2019-01-24T16:31:25.785Z,38.57
2019-01-24T16:33:51.707Z,38.97
2019-01-24T16:36:17.665Z,42.60
2019-01-24T16:38:43.535Z,41.30
2019-01-24T16:41:09.445Z,39.13
2019-01-24T16:43:35.314Z,37.97
2019-01-24T16:46:01.183Z,40.27
2019-01-24T16:48:27.086Z,42.47
2019-01-24T16:50:52.963Z,39.87
2019-01-24T16:53:18.877Z,41.40
2019-01-24T16:55:44.748Z,41.20
2019-01-24T16:58:10.658Z,40.17
2019-01-24T17:00:42.386Z,41.73
2019-01-24T17:03:08.316Z,98.03
2019-01-24T17:05:34.189Z,48.37
2019-01-24T17:08:00.106Z,50.70
2019-01-24T17:10:27.390Z,44.50
2019-01-24T17:12:53.294Z,47.57
2019-01-24T17:15:19.205Z,48.53
2019-01-24T17:17:45.140Z,50.03
2019-01-24T17:20:14.417Z,44.53
2019-01-24T17:22:40.330Z,44.57
2019-01-24T17:25:09.656Z,55.37
2019-01-24T17:27:35.582Z,61.27
2019-01-24T17:30:01.453Z,51.63
2019-01-24T17:32:27.395Z,43.00
2019-01-24T17:34:53.683Z,42.63
2019-01-24T17:37:19.708Z,41.87
2019-01-24T17:39:45.723Z,38.50
2019-01-24T17:42:11.629Z,54.90
2019-01-24T17:44:37.541Z,41.20
2019-01-24T17:47:03.663Z,43.23
2019-01-24T17:49:29.613Z,41.70
2019-01-24T17:51:58.584Z,42.60
2019-01-24T17:54:24.696Z,39.03
2019-01-24T17:56:50.570Z,40.53
2019-01-24T17:59:16.508Z,40.53
2019-01-24T18:01:42.435Z,37.37
2019-01-24T18:04:08.360Z,37.30
2019-01-24T18:06:34.376Z,37.07
2019-01-24T18:09:00.263Z,37.43
2019-01-24T18:11:26.197Z,39.23
2019-01-24T18:13:52.082Z,40.70
2019-01-24T18:16:18.063Z,41.67
2019-01-24T18:18:43.931Z,38.17
2019-01-24T18:21:09.800Z,36.77
2019-01-24T18:23:35.729Z,41.13
2019-01-24T18:26:01.638Z,42.43
2019-01-24T18:28:27.545Z,39.47
2019-01-24T18:30:53.430Z,41.90
2019-01-24T18:33:19.395Z,38.93
2019-01-24T18:35:45.276Z,38.43
2019-01-24T18:38:11.247Z,40.23
2019-01-24T18:40:37.138Z,39.10
2019-01-24T18:43:05.766Z,41.70
2019-01-24T18:45:46.571Z,43.73
2019-01-24T18:48:12.533Z,40.53
2019-01-24T18:50:38.406Z,43.63
2019-01-24T18:53:04.518Z,39.77
2019-01-24T18:55:30.446Z,43.90
2019-01-24T18:57:56.437Z,43.20
2019-01-24T19:00:41.038Z,43.43
2019-01-24T19:03:07.372Z,45.17
2019-01-24T19:05:33.248Z,43.47
2019-01-24T19:07:59.207Z,42.73
2019-01-24T19:10:25.082Z,42.20
2019-01-24T19:12:51.115Z,38.37
2019-01-24T19:15:18.961Z,39.47
2019-01-24T19:17:45.720Z,41.57
2019-01-24T19:20:12.117Z,45.10
2019-01-24T19:22:38.026Z,41.90
2019-01-24T19:25:09.799Z,41.53
2019-01-24T19:27:35.735Z,44.60
2019-01-24T19:30:04.824Z,43.83
2019-01-24T19:32:30.809Z,44.07
2019-01-24T19:34:56.729Z,43.67
2019-01-24T19:37:22.677Z,40.63
2019-01-24T19:39:48.690Z,42.73
2019-01-24T19:42:14.617Z,42.10
2019-01-24T19:44:40.545Z,48.77
2019-01-24T19:47:06.552Z,45.17
2019-01-24T19:49:32.479Z,44.50
2019-01-24T19:51:58.419Z,43.07
2019-01-24T19:54:24.353Z,45.07
2019-01-24T19:56:50.231Z,44.43
2019-01-24T19:59:16.141Z,47.90
2019-01-24T20:01:42.013Z,44.60
2019-01-24T20:04:07.944Z,46.87
2019-01-24T20:06:33.828Z,43.30
2019-01-24T20:09:00.379Z,49.93
2019-01-24T20:11:26.528Z,47.47
2019-01-24T20:13:52.441Z,41.03
2019-01-24T20:16:18.357Z,52.77
2019-01-24T20:18:44.323Z,50.30
2019-01-24T20:21:10.337Z,45.13
2019-01-24T20:23:36.293Z,45.70
2019-01-24T20:26:02.193Z,46.57
2019-01-24T20:28:28.159Z,46.03
2019-01-24T20:30:54.067Z,43.33
2019-01-24T20:33:20.030Z,45.47
2019-01-24T20:35:49.370Z,48.30
2019-01-24T20:38:15.311Z,47.47
2019-01-24T20:40:41.345Z,43.17
2019-01-24T20:43:09.152Z,47.30
2019-01-24T20:45:35.103Z,44.60
2019-01-24T20:48:01.009Z,48.37
2019-01-24T20:50:26.963Z,46.43
2019-01-24T20:52:52.886Z,48.87
2019-01-24T20:55:18.842Z,52.23
2019-01-24T20:57:44.754Z,50.87
2019-01-24T21:00:16.962Z,46.60
2019-01-24T21:02:43.120Z,48.03
2019-01-24T21:05:11.272Z,45.23
2019-01-24T21:07:37.286Z,47.37
2019-01-24T21:10:07.030Z,49.93
2019-01-24T21:12:32.970Z,47.67
2019-01-24T21:14:58.914Z,44.00
2019-01-24T21:17:24.886Z,51.13
2019-01-24T21:19:50.829Z,47.43
2019-01-24T21:22:16.721Z,49.07
2019-01-24T21:24:46.104Z,49.87
2019-01-24T21:27:12.111Z,47.47
2019-01-24T21:29:38.056Z,48.33
2019-01-24T21:32:03.999Z,50.50
2019-01-24T21:34:29.953Z,51.70
2019-01-24T21:36:55.927Z,48.90
2019-01-24T21:39:22.389Z,48.30
2019-01-24T21:41:48.492Z,48.60
2019-01-24T21:44:14.400Z,50.70
2019-01-24T21:46:40.364Z,50.33
2019-01-24T21:49:06.270Z,54.47
2019-01-24T21:51:32.199Z,53.23
2019-01-24T21:53:58.111Z,59.40
2019-01-24T21:56:24.087Z,55.77
2019-01-24T21:58:50.031Z,67.33
2019-01-24T22:01:15.969Z,62.60
2019-01-24T22:03:41.870Z,66.17
2019-01-24T22:06:07.832Z,60.40
2019-01-24T22:08:33.742Z,65.77
2019-01-24T22:10:59.681Z,65.87
2019-01-24T22:13:25.624Z,64.47
2019-01-24T22:15:51.885Z,65.67
2019-01-24T22:18:20.970Z,61.67
2019-01-24T22:20:46.991Z,54.40
2019-01-24T22:23:12.928Z,52.40
2019-01-24T22:25:38.889Z,52.00
2019-01-24T22:28:04.800Z,54.70
2019-01-24T22:30:35.632Z,54.63
2019-01-24T22:33:02.205Z,53.90
2019-01-24T22:35:28.129Z,50.77
2019-01-24T22:37:54.087Z,50.87
2019-01-24T22:40:20.030Z,48.13
2019-01-24T22:42:45.923Z,48.90
2019-01-24T22:45:15.118Z,40.67
2019-01-24T22:47:41.024Z,45.50
2019-01-24T22:50:10.175Z,45.97
2019-01-24T22:52:36.066Z,41.93
2019-01-24T22:55:02.874Z,48.47
2019-01-24T22:57:28.810Z,48.27
2019-01-24T22:59:54.872Z,48.53
2019-01-24T23:02:20.818Z,46.00
2019-01-24T23:04:46.712Z,45.70
2019-01-24T23:07:12.663Z,50.70
2019-01-24T23:09:44.011Z,45.60
2019-01-24T23:12:06.663Z,44.43
2019-01-24T23:14:32.700Z,45.80
2019-01-24T23:16:58.665Z,51.27
2019-01-24T23:19:24.566Z,44.73
2019-01-24T23:21:50.509Z,44.23
2019-01-24T23:24:16.453Z,47.17
2019-01-24T23:26:42.348Z,51.87
2019-01-24T23:29:08.296Z,44.93
2019-01-24T23:31:34.363Z,45.93
2019-01-24T23:34:00.321Z,49.90
2019-01-24T23:36:26.224Z,48.07
2019-01-24T23:38:52.171Z,47.00
2019-01-24T23:41:18.125Z,45.60
2019-01-24T23:43:44.095Z,45.33
2019-01-24T23:46:10.196Z,45.93
2019-01-24T23:48:36.103Z,42.97
2019-01-24T23:51:02.058Z,48.53
2019-01-24T23:53:28.016Z,45.87
2019-01-24T23:55:53.958Z,45.10
2019-01-24T23:58:19.862Z,46.03
